sensor_id;sensor_type;location;lat;lon;timestamp;pressure;altitude;pressure_sealevel;temperature;humidity
36664;BME280;53333;51.976;20.144;2023-07-08T00:01:59;100784.88;;;18.03;52.88
36664;BME280;53333;51.976;20.144;2023-07-08T00:04:34;100785.97;;;18.00;53.19
36664;BME280;53333;51.976;20.144;2023-07-08T00:07:10;100780.66;;;17.99;53.06
36664;BME280;53333;51.976;20.144;2023-07-08T00:09:46;100791.69;;;17.95;53.03
36664;BME280;53333;51.976;20.144;2023-07-08T00:12:19;100788.34;;;17.92;53.00
36664;BME280;53333;51.976;20.144;2023-07-08T00:14:52;100776.84;;;17.88;53.18
36664;BME280;53333;51.976;20.144;2023-07-08T00:17:25;100779.75;;;17.85;53.04
36664;BME280;53333;51.976;20.144;2023-07-08T00:20:00;100784.50;;;17.82;53.20
36664;BME280;53333;51.976;20.144;2023-07-08T00:22:33;100776.59;;;17.78;53.44
36664;BME280;53333;51.976;20.144;2023-07-08T00:25:08;100791.22;;;17.76;53.60
36664;BME280;53333;51.976;20.144;2023-07-08T00:27:41;100787.63;;;17.75;53.36
36664;BME280;53333;51.976;20.144;2023-07-08T00:30:19;100783.22;;;17.74;53.20
36664;BME280;53333;51.976;20.144;2023-07-08T00:32:54;100777.91;;;17.73;53.08
36664;BME280;53333;51.976;20.144;2023-07-08T00:35:32;100779.84;;;17.71;52.74
36664;BME280;53333;51.976;20.144;2023-07-08T00:38:11;100782.63;;;17.69;52.65
36664;BME280;53333;51.976;20.144;2023-07-08T00:40:50;100783.63;;;17.68;52.84
36664;BME280;53333;51.976;20.144;2023-07-08T00:43:33;100782.84;;;17.66;52.71
36664;BME280;53333;51.976;20.144;2023-07-08T00:46:18;100779.41;;;17.64;52.72
36664;BME280;53333;51.976;20.144;2023-07-08T00:49:03;100779.50;;;17.63;52.23
36664;BME280;53333;51.976;20.144;2023-07-08T00:51:42;100780.50;;;17.61;52.14
36664;BME280;53333;51.976;20.144;2023-07-08T00:54:17;100778.84;;;17.59;52.02
36664;BME280;53333;51.976;20.144;2023-07-08T00:56:52;100778.09;;;17.57;51.96
36664;BME280;53333;51.976;20.144;2023-07-08T00:59:29;100778.97;;;17.57;51.86
36664;BME280;53333;51.976;20.144;2023-07-08T01:02:05;100783.59;;;17.55;51.80
36664;BME280;53333;51.976;20.144;2023-07-08T01:04:46;100772.81;;;17.55;51.51
36664;BME280;53333;51.976;20.144;2023-07-08T01:07:25;100773.66;;;17.56;51.75
36664;BME280;53333;51.976;20.144;2023-07-08T01:10:02;100785.41;;;17.55;51.51
36664;BME280;53333;51.976;20.144;2023-07-08T01:12:38;100779.16;;;17.54;51.63
36664;BME280;53333;51.976;20.144;2023-07-08T01:15:13;100780.31;;;17.50;51.68
36664;BME280;53333;51.976;20.144;2023-07-08T01:17:46;100787.69;;;17.48;51.72
36664;BME280;53333;51.976;20.144;2023-07-08T01:20:25;100777.97;;;17.46;51.84
36664;BME280;53333;51.976;20.144;2023-07-08T01:23:00;100775.47;;;17.42;52.25
36664;BME280;53333;51.976;20.144;2023-07-08T01:25:33;100780.19;;;17.39;52.44
36664;BME280;53333;51.976;20.144;2023-07-08T01:28:06;100782.25;;;17.35;52.37
36664;BME280;53333;51.976;20.144;2023-07-08T01:30:40;100771.03;;;17.41;52.02
36664;BME280;53333;51.976;20.144;2023-07-08T01:33:17;100779.94;;;17.29;52.46
36664;BME280;53333;51.976;20.144;2023-07-08T01:35:51;100777.56;;;17.24;52.72
36664;BME280;53333;51.976;20.144;2023-07-08T01:38:26;100784.25;;;17.19;53.00
36664;BME280;53333;51.976;20.144;2023-07-08T01:41:00;100774.63;;;17.15;53.17
36664;BME280;53333;51.976;20.144;2023-07-08T01:43:34;100771.38;;;17.10;53.88
36664;BME280;53333;51.976;20.144;2023-07-08T01:46:12;100773.31;;;17.08;53.89
36664;BME280;53333;51.976;20.144;2023-07-08T01:48:49;100774.47;;;17.03;54.19
36664;BME280;53333;51.976;20.144;2023-07-08T01:51:25;100775.75;;;16.98;54.53
36664;BME280;53333;51.976;20.144;2023-07-08T01:54:00;100773.34;;;16.93;54.41
36664;BME280;53333;51.976;20.144;2023-07-08T01:56:33;100782.59;;;16.89;54.50
36664;BME280;53333;51.976;20.144;2023-07-08T01:59:06;100782.97;;;16.97;53.73
36664;BME280;53333;51.976;20.144;2023-07-08T02:01:39;100781.84;;;16.87;54.44
36664;BME280;53333;51.976;20.144;2023-07-08T02:04:12;100781.25;;;16.82;54.57
36664;BME280;53333;51.976;20.144;2023-07-08T02:06:50;100782.22;;;16.81;54.80
36664;BME280;53333;51.976;20.144;2023-07-08T02:09:25;100779.59;;;16.79;54.83
36664;BME280;53333;51.976;20.144;2023-07-08T02:11:58;100777.00;;;16.78;54.76
36664;BME280;53333;51.976;20.144;2023-07-08T02:14:31;100775.47;;;16.74;55.22
36664;BME280;53333;51.976;20.144;2023-07-08T02:17:04;100776.75;;;16.68;55.23
36664;BME280;53333;51.976;20.144;2023-07-08T02:19:37;100780.84;;;16.74;54.47
36664;BME280;53333;51.976;20.144;2023-07-08T02:22:10;100780.88;;;16.59;55.10
36664;BME280;53333;51.976;20.144;2023-07-08T02:24:44;100782.91;;;16.56;55.64
36664;BME280;53333;51.976;20.144;2023-07-08T02:27:17;100782.34;;;16.50;55.82
36664;BME280;53333;51.976;20.144;2023-07-08T02:29:50;100787.00;;;16.48;55.98
36664;BME280;53333;51.976;20.144;2023-07-08T02:32:23;100781.88;;;16.44;56.19
36664;BME280;53333;51.976;20.144;2023-07-08T02:34:56;100781.22;;;16.40;56.24
36664;BME280;53333;51.976;20.144;2023-07-08T02:37:29;100783.31;;;16.35;56.44
36664;BME280;53333;51.976;20.144;2023-07-08T02:40:04;100777.25;;;16.31;56.29
36664;BME280;53333;51.976;20.144;2023-07-08T02:42:38;100787.28;;;16.29;56.42
36664;BME280;53333;51.976;20.144;2023-07-08T02:45:12;100781.09;;;16.27;56.39
36664;BME280;53333;51.976;20.144;2023-07-08T02:47:45;100774.00;;;16.26;56.23
36664;BME280;53333;51.976;20.144;2023-07-08T02:50:18;100770.44;;;16.26;56.00
36664;BME280;53333;51.976;20.144;2023-07-08T02:52:51;100768.59;;;16.26;55.98
36664;BME280;53333;51.976;20.144;2023-07-08T02:55:25;100770.31;;;16.27;55.65
36664;BME280;53333;51.976;20.144;2023-07-08T02:57:58;100764.94;;;16.27;55.72
36664;BME280;53333;51.976;20.144;2023-07-08T03:00:31;100766.66;;;16.28;55.71
36664;BME280;53333;51.976;20.144;2023-07-08T03:03:04;100762.22;;;16.27;55.57
36664;BME280;53333;51.976;20.144;2023-07-08T03:05:38;100764.94;;;16.27;55.71
36664;BME280;53333;51.976;20.144;2023-07-08T03:08:11;100754.06;;;16.29;55.44
36664;BME280;53333;51.976;20.144;2023-07-08T03:10:47;100762.84;;;16.32;55.51
36664;BME280;53333;51.976;20.144;2023-07-08T03:13:20;100763.59;;;16.34;55.20
36664;BME280;53333;51.976;20.144;2023-07-08T03:15:53;100774.09;;;16.39;55.17
36664;BME280;53333;51.976;20.144;2023-07-08T03:18:27;100777.53;;;16.41;55.11
36664;BME280;53333;51.976;20.144;2023-07-08T03:21:00;100781.09;;;16.42;55.54
36664;BME280;53333;51.976;20.144;2023-07-08T03:23:34;100785.44;;;16.44;55.15
36664;BME280;53333;51.976;20.144;2023-07-08T03:26:08;100779.06;;;16.60;54.76
36664;BME280;53333;51.976;20.144;2023-07-08T03:28:45;100787.47;;;16.55;55.18
36664;BME280;53333;51.976;20.144;2023-07-08T03:31:19;100791.78;;;16.58;55.26
36664;BME280;53333;51.976;20.144;2023-07-08T03:33:53;100784.47;;;16.60;55.29
36664;BME280;53333;51.976;20.144;2023-07-08T03:36:26;100795.72;;;16.66;55.32
36664;BME280;53333;51.976;20.144;2023-07-08T03:39:00;100794.47;;;16.72;55.37
36664;BME280;53333;51.976;20.144;2023-07-08T03:41:34;100797.75;;;16.77;55.24
36664;BME280;53333;51.976;20.144;2023-07-08T03:44:07;100792.81;;;16.84;55.28
36664;BME280;53333;51.976;20.144;2023-07-08T03:46:40;100799.44;;;16.93;54.86
36664;BME280;53333;51.976;20.144;2023-07-08T03:49:15;100795.50;;;16.98;54.72
36664;BME280;53333;51.976;20.144;2023-07-08T03:51:51;100808.38;;;17.08;54.63
36664;BME280;53333;51.976;20.144;2023-07-08T03:54:26;100805.09;;;17.17;54.40
36664;BME280;53333;51.976;20.144;2023-07-08T03:57:03;100796.44;;;17.24;54.02
36664;BME280;53333;51.976;20.144;2023-07-08T03:59:39;100798.66;;;17.32;54.10
36664;BME280;53333;51.976;20.144;2023-07-08T04:02:12;100790.78;;;17.42;53.78
36664;BME280;53333;51.976;20.144;2023-07-08T04:04:46;100788.31;;;17.52;53.67
36664;BME280;53333;51.976;20.144;2023-07-08T04:07:19;100794.09;;;17.60;53.38
36664;BME280;53333;51.976;20.144;2023-07-08T04:09:52;100784.59;;;17.67;53.03
36664;BME280;53333;51.976;20.144;2023-07-08T04:12:27;100787.41;;;17.78;52.80
36664;BME280;53333;51.976;20.144;2023-07-08T04:15:00;100785.84;;;17.89;52.88
36664;BME280;53333;51.976;20.144;2023-07-08T04:17:34;100777.84;;;18.00;52.80
36664;BME280;53333;51.976;20.144;2023-07-08T04:20:08;100782.50;;;18.11;52.28
36664;BME280;53333;51.976;20.144;2023-07-08T04:22:42;100786.16;;;18.23;51.79
36664;BME280;53333;51.976;20.144;2023-07-08T04:25:15;100776.19;;;18.36;51.29
36664;BME280;53333;51.976;20.144;2023-07-08T04:27:50;100772.63;;;18.48;51.34
36664;BME280;53333;51.976;20.144;2023-07-08T04:30:30;100776.16;;;18.62;50.41
36664;BME280;53333;51.976;20.144;2023-07-08T04:33:03;100777.97;;;18.74;50.42
36664;BME280;53333;51.976;20.144;2023-07-08T04:35:39;100778.94;;;18.86;50.11
36664;BME280;53333;51.976;20.144;2023-07-08T04:38:16;100775.44;;;18.97;50.04
36664;BME280;53333;51.976;20.144;2023-07-08T04:40:52;100774.63;;;19.08;49.43
36664;BME280;53333;51.976;20.144;2023-07-08T04:43:26;100782.81;;;19.19;49.74
36664;BME280;53333;51.976;20.144;2023-07-08T04:46:01;100779.31;;;19.30;49.98
36664;BME280;53333;51.976;20.144;2023-07-08T04:48:34;100778.50;;;19.40;49.55
36664;BME280;53333;51.976;20.144;2023-07-08T04:51:08;100773.22;;;19.50;49.40
36664;BME280;53333;51.976;20.144;2023-07-08T04:53:41;100771.53;;;19.60;48.70
36664;BME280;53333;51.976;20.144;2023-07-08T04:56:14;100776.97;;;19.72;47.76
36664;BME280;53333;51.976;20.144;2023-07-08T04:58:48;100773.59;;;19.81;47.49
36664;BME280;53333;51.976;20.144;2023-07-08T05:01:22;100771.78;;;19.93;47.30
36664;BME280;53333;51.976;20.144;2023-07-08T05:03:55;100771.69;;;20.06;46.73
36664;BME280;53333;51.976;20.144;2023-07-08T05:06:28;100776.88;;;20.20;46.81
36664;BME280;53333;51.976;20.144;2023-07-08T05:09:01;100776.75;;;20.33;46.88
36664;BME280;53333;51.976;20.144;2023-07-08T05:11:35;100773.03;;;20.45;46.97
36664;BME280;53333;51.976;20.144;2023-07-08T05:14:10;100766.63;;;20.69;46.59
36664;BME280;53333;51.976;20.144;2023-07-08T05:16:43;100766.63;;;20.69;46.71
36664;BME280;53333;51.976;20.144;2023-07-08T05:19:16;100767.50;;;20.81;46.75
36664;BME280;53333;51.976;20.144;2023-07-08T05:21:50;100769.91;;;20.95;45.93
36664;BME280;53333;51.976;20.144;2023-07-08T05:24:25;100765.19;;;21.09;45.32
36664;BME280;53333;51.976;20.144;2023-07-08T05:26:58;100771.44;;;21.20;45.13
36664;BME280;53333;51.976;20.144;2023-07-08T05:29:32;100765.66;;;21.46;45.01
36664;BME280;53333;51.976;20.144;2023-07-08T05:32:06;100769.22;;;21.47;44.79
36664;BME280;53333;51.976;20.144;2023-07-08T05:34:39;100763.06;;;21.56;44.42
36664;BME280;53333;51.976;20.144;2023-07-08T05:37:13;100763.00;;;21.67;44.54
36664;BME280;53333;51.976;20.144;2023-07-08T05:39:46;100762.91;;;21.79;44.21
36664;BME280;53333;51.976;20.144;2023-07-08T05:42:19;100759.16;;;21.91;43.96
36664;BME280;53333;51.976;20.144;2023-07-08T05:44:54;100755.31;;;22.03;44.46
36664;BME280;53333;51.976;20.144;2023-07-08T05:47:27;100756.69;;;22.19;43.85
36664;BME280;53333;51.976;20.144;2023-07-08T05:50:00;100749.31;;;22.30;43.93
36664;BME280;53333;51.976;20.144;2023-07-08T05:52:33;100752.69;;;22.44;43.51
36664;BME280;53333;51.976;20.144;2023-07-08T05:55:08;100748.00;;;22.56;43.65
36664;BME280;53333;51.976;20.144;2023-07-08T05:57:41;100741.44;;;22.68;42.71
36664;BME280;53333;51.976;20.144;2023-07-08T06:00:16;100747.34;;;22.83;42.82
36664;BME280;53333;51.976;20.144;2023-07-08T06:03:08;100746.09;;;22.97;42.84
36664;BME280;53333;51.976;20.144;2023-07-08T06:05:42;100746.41;;;23.13;42.25
36664;BME280;53333;51.976;20.144;2023-07-08T06:08:15;100750.44;;;23.29;41.75
36664;BME280;53333;51.976;20.144;2023-07-08T06:10:49;100742.56;;;23.45;42.18
36664;BME280;53333;51.976;20.144;2023-07-08T06:13:22;100740.97;;;23.62;41.81
36664;BME280;53333;51.976;20.144;2023-07-08T06:15:56;100747.69;;;23.78;41.01
36664;BME280;53333;51.976;20.144;2023-07-08T06:18:29;100746.09;;;23.94;41.61
36664;BME280;53333;51.976;20.144;2023-07-08T06:21:03;100739.72;;;24.14;41.14
36664;BME280;53333;51.976;20.144;2023-07-08T06:23:36;100747.97;;;24.32;40.46
36664;BME280;53333;51.976;20.144;2023-07-08T06:26:09;100741.72;;;24.49;40.22
36664;BME280;53333;51.976;20.144;2023-07-08T06:28:41;100747.56;;;24.64;40.22
36664;BME280;53333;51.976;20.144;2023-07-08T06:31:16;100753.06;;;24.82;39.90
36664;BME280;53333;51.976;20.144;2023-07-08T06:33:49;100748.81;;;24.97;39.28
36664;BME280;53333;51.976;20.144;2023-07-08T06:36:22;100738.03;;;25.14;39.62
36664;BME280;53333;51.976;20.144;2023-07-08T06:38:55;100739.25;;;25.29;38.08
36664;BME280;53333;51.976;20.144;2023-07-08T06:41:28;100733.06;;;25.45;38.24
36664;BME280;53333;51.976;20.144;2023-07-08T06:44:00;100730.88;;;25.75;38.33
36664;BME280;53333;51.976;20.144;2023-07-08T06:46:37;100733.44;;;25.77;37.42
36664;BME280;53333;51.976;20.144;2023-07-08T06:49:11;100735.91;;;25.88;36.96
36664;BME280;53333;51.976;20.144;2023-07-08T06:51:44;100732.63;;;26.02;36.46
36664;BME280;53333;51.976;20.144;2023-07-08T06:54:17;100737.34;;;26.18;36.35
36664;BME280;53333;51.976;20.144;2023-07-08T06:56:50;100739.13;;;26.36;36.11
36664;BME280;53333;51.976;20.144;2023-07-08T06:59:23;100740.22;;;26.51;35.50
36664;BME280;53333;51.976;20.144;2023-07-08T07:01:57;100735.06;;;26.82;35.66
36664;BME280;53333;51.976;20.144;2023-07-08T07:04:30;100738.16;;;26.88;34.13
36664;BME280;53333;51.976;20.144;2023-07-08T07:07:04;100743.31;;;26.99;33.65
36664;BME280;53333;51.976;20.144;2023-07-08T07:09:38;100736.50;;;27.11;33.49
36664;BME280;53333;51.976;20.144;2023-07-08T07:12:11;100729.69;;;27.24;32.93
36664;BME280;53333;51.976;20.144;2023-07-08T07:14:44;100736.38;;;27.38;32.12
36664;BME280;53333;51.976;20.144;2023-07-08T07:17:19;100735.00;;;27.50;31.42
36664;BME280;53333;51.976;20.144;2023-07-08T07:19:53;100734.00;;;27.59;32.14
36664;BME280;53333;51.976;20.144;2023-07-08T07:22:25;100730.53;;;27.73;31.00
36664;BME280;53333;51.976;20.144;2023-07-08T07:25:00;100733.09;;;27.83;30.09
36664;BME280;53333;51.976;20.144;2023-07-08T07:27:33;100731.19;;;27.92;29.77
36664;BME280;53333;51.976;20.144;2023-07-08T07:30:06;100728.25;;;28.18;30.60
36664;BME280;53333;51.976;20.144;2023-07-08T07:32:41;100735.44;;;28.19;30.76
36664;BME280;53333;51.976;20.144;2023-07-08T07:35:14;100729.09;;;28.19;30.55
36664;BME280;53333;51.976;20.144;2023-07-08T07:37:48;100728.22;;;28.26;29.74
36664;BME280;53333;51.976;20.144;2023-07-08T07:40:21;100726.91;;;28.54;30.67
36664;BME280;53333;51.976;20.144;2023-07-08T07:42:53;100734.59;;;28.67;30.21
36664;BME280;53333;51.976;20.144;2023-07-08T07:45:26;100726.78;;;28.87;30.64
36664;BME280;53333;51.976;20.144;2023-07-08T07:48:00;100731.38;;;28.94;30.36
36664;BME280;53333;51.976;20.144;2023-07-08T07:50:33;100733.00;;;29.04;29.62
36664;BME280;53333;51.976;20.144;2023-07-08T07:53:06;100734.09;;;29.17;29.04
36664;BME280;53333;51.976;20.144;2023-07-08T07:55:39;100734.06;;;29.26;29.31
36664;BME280;53333;51.976;20.144;2023-07-08T07:58:12;100728.16;;;29.37;29.88
36664;BME280;53333;51.976;20.144;2023-07-08T08:00:45;100729.19;;;29.36;29.14
36664;BME280;53333;51.976;20.144;2023-07-08T08:03:20;100727.50;;;29.50;29.06
36664;BME280;53333;51.976;20.144;2023-07-08T08:05:53;100737.53;;;29.66;28.95
36664;BME280;53333;51.976;20.144;2023-07-08T08:08:26;100739.91;;;29.69;28.70
36664;BME280;53333;51.976;20.144;2023-07-08T08:10:59;100727.31;;;29.75;26.80
36664;BME280;53333;51.976;20.144;2023-07-08T08:13:33;100733.56;;;29.68;27.94
36664;BME280;53333;51.976;20.144;2023-07-08T08:16:06;100734.22;;;29.70;27.42
36664;BME280;53333;51.976;20.144;2023-07-08T08:18:40;100731.72;;;29.99;28.37
36664;BME280;53333;51.976;20.144;2023-07-08T08:21:13;100727.94;;;30.15;27.96
36664;BME280;53333;51.976;20.144;2023-07-08T08:23:46;100737.44;;;30.27;27.37
36664;BME280;53333;51.976;20.144;2023-07-08T08:26:19;100733.19;;;30.39;26.69
36664;BME280;53333;51.976;20.144;2023-07-08T08:28:52;100731.84;;;30.65;27.21
36664;BME280;53333;51.976;20.144;2023-07-08T08:31:25;100730.38;;;30.69;26.19
36664;BME280;53333;51.976;20.144;2023-07-08T08:33:59;100729.34;;;30.70;25.71
36664;BME280;53333;51.976;20.144;2023-07-08T08:36:32;100723.97;;;30.62;26.99
36664;BME280;53333;51.976;20.144;2023-07-08T08:39:05;100728.84;;;30.67;26.28
36664;BME280;53333;51.976;20.144;2023-07-08T08:41:40;100725.69;;;30.85;26.85
36664;BME280;53333;51.976;20.144;2023-07-08T08:44:16;100726.31;;;31.02;25.63
36664;BME280;53333;51.976;20.144;2023-07-08T08:46:53;100726.09;;;31.18;25.51
36664;BME280;53333;51.976;20.144;2023-07-08T08:49:35;100722.59;;;31.31;24.68
36664;BME280;53333;51.976;20.144;2023-07-08T08:52:10;100729.44;;;31.57;25.47
36664;BME280;53333;51.976;20.144;2023-07-08T08:54:44;100727.09;;;32.10;24.18
36664;BME280;53333;51.976;20.144;2023-07-08T08:57:25;100730.88;;;32.86;22.96
36664;BME280;53333;51.976;20.144;2023-07-08T09:00:00;100728.47;;;33.91;21.20
36664;BME280;53333;51.976;20.144;2023-07-08T09:02:39;100728.78;;;34.48;20.11
36664;BME280;53333;51.976;20.144;2023-07-08T09:05:15;100737.22;;;34.67;21.57
36664;BME280;53333;51.976;20.144;2023-07-08T09:08:00;100729.56;;;35.64;20.54
36664;BME280;53333;51.976;20.144;2023-07-08T09:10:43;100727.56;;;36.59;19.50
36664;BME280;53333;51.976;20.144;2023-07-08T09:13:22;100729.25;;;37.39;18.32
36664;BME280;53333;51.976;20.144;2023-07-08T09:16:02;100724.69;;;37.92;18.73
36664;BME280;53333;51.976;20.144;2023-07-08T09:18:41;100731.47;;;38.08;19.05
36664;BME280;53333;51.976;20.144;2023-07-08T09:21:22;100734.28;;;38.20;17.90
36664;BME280;53333;51.976;20.144;2023-07-08T09:24:01;100725.53;;;38.05;18.40
36664;BME280;53333;51.976;20.144;2023-07-08T09:26:35;100727.25;;;37.82;18.53
36664;BME280;53333;51.976;20.144;2023-07-08T09:29:09;100730.00;;;37.47;17.95
36664;BME280;53333;51.976;20.144;2023-07-08T09:31:43;100725.97;;;37.31;18.47
36664;BME280;53333;51.976;20.144;2023-07-08T09:34:19;100715.31;;;37.51;16.74
36664;BME280;53333;51.976;20.144;2023-07-08T09:36:55;100720.31;;;37.61;17.70
36664;BME280;53333;51.976;20.144;2023-07-08T09:39:28;100723.59;;;37.70;17.60
36664;BME280;53333;51.976;20.144;2023-07-08T09:42:06;100709.69;;;37.93;18.28
36664;BME280;53333;51.976;20.144;2023-07-08T09:44:40;100715.97;;;38.24;17.66
36664;BME280;53333;51.976;20.144;2023-07-08T09:47:21;100709.25;;;38.49;18.72
36664;BME280;53333;51.976;20.144;2023-07-08T09:49:54;100713.78;;;38.26;17.71
36664;BME280;53333;51.976;20.144;2023-07-08T09:52:30;100712.34;;;38.24;17.83
36664;BME280;53333;51.976;20.144;2023-07-08T09:55:04;100704.44;;;37.19;17.90
36664;BME280;53333;51.976;20.144;2023-07-08T09:57:39;100705.28;;;37.50;18.46
36664;BME280;53333;51.976;20.144;2023-07-08T10:00:14;100700.72;;;37.79;18.75
36664;BME280;53333;51.976;20.144;2023-07-08T10:02:51;100698.28;;;37.95;18.23
36664;BME280;53333;51.976;20.144;2023-07-08T10:05:28;100702.16;;;37.70;18.22
36664;BME280;53333;51.976;20.144;2023-07-08T10:08:12;100697.72;;;36.66;18.61
36664;BME280;53333;51.976;20.144;2023-07-08T10:10:47;100692.03;;;35.37;19.19
36664;BME280;53333;51.976;20.144;2023-07-08T10:13:24;100694.34;;;34.69;21.08
36664;BME280;53333;51.976;20.144;2023-07-08T10:16:09;100690.06;;;34.08;20.73
36664;BME280;53333;51.976;20.144;2023-07-08T10:18:45;100701.41;;;33.20;21.52
36664;BME280;53333;51.976;20.144;2023-07-08T10:21:26;100685.56;;;32.80;23.62
36664;BME280;53333;51.976;20.144;2023-07-08T10:24:20;100672.53;;;32.67;22.75
36664;BME280;53333;51.976;20.144;2023-07-08T10:27:02;100676.16;;;32.68;23.28
36664;BME280;53333;51.976;20.144;2023-07-08T10:29:45;100686.38;;;32.74;23.77
36664;BME280;53333;51.976;20.144;2023-07-08T10:32:28;100667.03;;;32.74;22.77
36664;BME280;53333;51.976;20.144;2023-07-08T10:35:13;100680.28;;;32.37;22.72
36664;BME280;53333;51.976;20.144;2023-07-08T10:41:00;100668.28;;;31.53;22.76
36664;BME280;53333;51.976;20.144;2023-07-08T10:43:46;100666.50;;;31.45;23.11
36664;BME280;53333;51.976;20.144;2023-07-08T10:46:33;100668.66;;;31.50;24.47
36664;BME280;53333;51.976;20.144;2023-07-08T10:49:28;100671.81;;;31.75;24.51
36664;BME280;53333;51.976;20.144;2023-07-08T10:52:17;100656.50;;;32.01;23.89
36664;BME280;53333;51.976;20.144;2023-07-08T10:55:10;100654.66;;;32.15;23.28
36664;BME280;53333;51.976;20.144;2023-07-08T11:01:08;100651.53;;;32.25;23.28
36664;BME280;53333;51.976;20.144;2023-07-08T11:04:07;100647.13;;;32.44;23.84
36664;BME280;53333;51.976;20.144;2023-07-08T11:06:48;100647.41;;;32.55;22.42
36664;BME280;53333;51.976;20.144;2023-07-08T11:09:26;100647.13;;;32.44;22.16
36664;BME280;53333;51.976;20.144;2023-07-08T11:12:04;100650.00;;;32.15;21.89
36664;BME280;53333;51.976;20.144;2023-07-08T11:14:45;100643.97;;;31.70;22.30
36664;BME280;53333;51.976;20.144;2023-07-08T11:17:26;100643.16;;;31.48;22.87
36664;BME280;53333;51.976;20.144;2023-07-08T11:20:03;100637.88;;;31.25;22.82
36664;BME280;53333;51.976;20.144;2023-07-08T11:22:49;100636.50;;;31.14;23.08
36664;BME280;53333;51.976;20.144;2023-07-08T11:25:25;100632.25;;;31.11;22.69
36664;BME280;53333;51.976;20.144;2023-07-08T11:28:04;100627.59;;;31.12;22.80
36664;BME280;53333;51.976;20.144;2023-07-08T11:30:38;100634.19;;;31.18;23.24
36664;BME280;53333;51.976;20.144;2023-07-08T11:33:17;100624.28;;;31.23;23.91
36664;BME280;53333;51.976;20.144;2023-07-08T11:35:53;100636.66;;;31.27;23.17
36664;BME280;53333;51.976;20.144;2023-07-08T11:38:32;100625.63;;;31.06;22.35
36664;BME280;53333;51.976;20.144;2023-07-08T11:41:13;100628.53;;;30.98;23.87
36664;BME280;53333;51.976;20.144;2023-07-08T11:43:48;100633.06;;;31.05;24.35
36664;BME280;53333;51.976;20.144;2023-07-08T11:46:24;100620.06;;;30.99;23.20
36664;BME280;53333;51.976;20.144;2023-07-08T11:49:03;100626.59;;;30.76;23.86
36664;BME280;53333;51.976;20.144;2023-07-08T11:51:40;100629.97;;;30.57;24.05
36664;BME280;53333;51.976;20.144;2023-07-08T11:54:25;100629.19;;;30.63;24.28
36664;BME280;53333;51.976;20.144;2023-07-08T11:57:04;100621.16;;;30.83;24.99
36664;BME280;53333;51.976;20.144;2023-07-08T11:59:40;100618.34;;;30.98;23.80
36664;BME280;53333;51.976;20.144;2023-07-08T12:02:16;100616.03;;;31.02;23.38
36664;BME280;53333;51.976;20.144;2023-07-08T12:04:58;100615.09;;;31.16;23.68
36664;BME280;53333;51.976;20.144;2023-07-08T12:07:33;100612.03;;;31.26;23.34
36664;BME280;53333;51.976;20.144;2023-07-08T12:10:13;100611.47;;;31.37;24.36
36664;BME280;53333;51.976;20.144;2023-07-08T12:12:48;100605.38;;;31.48;23.62
36664;BME280;53333;51.976;20.144;2023-07-08T12:15:23;100603.47;;;31.49;23.28
36664;BME280;53333;51.976;20.144;2023-07-08T12:18:00;100606.22;;;31.49;23.38
36664;BME280;53333;51.976;20.144;2023-07-08T12:20:37;100608.41;;;31.54;23.43
36664;BME280;53333;51.976;20.144;2023-07-08T12:23:12;100604.63;;;31.55;22.35
36664;BME280;53333;51.976;20.144;2023-07-08T12:25:45;100604.72;;;31.46;22.44
36664;BME280;53333;51.976;20.144;2023-07-08T12:28:19;100602.13;;;31.38;22.40
36664;BME280;53333;51.976;20.144;2023-07-08T12:30:52;100597.94;;;31.21;22.15
36664;BME280;53333;51.976;20.144;2023-07-08T12:33:30;100603.50;;;30.99;23.20
36664;BME280;53333;51.976;20.144;2023-07-08T12:36:09;100596.34;;;30.83;23.08
36664;BME280;53333;51.976;20.144;2023-07-08T12:38:44;100581.69;;;30.83;25.49
36664;BME280;53333;51.976;20.144;2023-07-08T12:41:20;100583.06;;;30.93;25.51
36664;BME280;53333;51.976;20.144;2023-07-08T12:43:53;100589.19;;;31.10;23.86
36664;BME280;53333;51.976;20.144;2023-07-08T12:46:28;100583.75;;;31.24;23.74
36664;BME280;53333;51.976;20.144;2023-07-08T12:49:01;100584.09;;;31.36;25.17
36664;BME280;53333;51.976;20.144;2023-07-08T12:51:35;100577.56;;;31.43;25.04
36664;BME280;53333;51.976;20.144;2023-07-08T12:54:09;100573.09;;;31.42;24.48
36664;BME280;53333;51.976;20.144;2023-07-08T12:56:45;100573.25;;;31.34;22.78
36664;BME280;53333;51.976;20.144;2023-07-08T12:59:20;100561.00;;;31.15;23.28
36664;BME280;53333;51.976;20.144;2023-07-08T13:01:54;100568.84;;;31.11;24.18
36664;BME280;53333;51.976;20.144;2023-07-08T13:04:27;100561.41;;;31.12;22.86
36664;BME280;53333;51.976;20.144;2023-07-08T13:07:02;100569.44;;;31.07;22.39
36664;BME280;53333;51.976;20.144;2023-07-08T13:09:38;100562.44;;;31.11;23.23
36664;BME280;53333;51.976;20.144;2023-07-08T13:12:15;100559.88;;;31.09;23.54
36664;BME280;53333;51.976;20.144;2023-07-08T13:14:49;100568.00;;;31.18;23.00
36664;BME280;53333;51.976;20.144;2023-07-08T13:17:23;100567.22;;;31.24;22.93
36664;BME280;53333;51.976;20.144;2023-07-08T13:19:57;100560.91;;;31.30;24.16
36664;BME280;53333;51.976;20.144;2023-07-08T13:22:32;100552.84;;;31.35;22.58
36664;BME280;53333;51.976;20.144;2023-07-08T13:25:13;100556.53;;;31.42;24.02
36664;BME280;53333;51.976;20.144;2023-07-08T13:27:55;100551.84;;;31.43;23.74
36664;BME280;53333;51.976;20.144;2023-07-08T13:30:30;100554.41;;;31.44;23.26